Dauntless Aviation
Airports Europe United Kingdom
EGLC
LCY

London City

London, UNITED KINGDOM

Airport Info
Suggest Updated Information for this Airport

Location

Latitude / Longitude: 51°30'18"N / 0°3'12"E
  51°30.3'N / 0°3.21'E
  51.5050 / 0.0535

Nearby radio navigation aids

LCY CITY NDB on field.

Runway Information

Runway 10 /28

Dimensions: 4948 x 98 ft.
Surface: ASP
 
Runway 10
Runway 28
Latitude: 51.505528 51.504922
Longitude: 0.045753 0.064953
Elevation: 16 ft. 16 ft.
Runway true heading: 91.1 271.1
 

Instrument Procedures

  Control Zone and Control Area Chart
  Aircraft Parking/Docking Chart
  Aerodrome Chart

STARs (Standard Terminal Arrivals)

  STAR via SPEAR (Northwest)
  STAR via ALKIN (South)
  STAR via SPEAR (East)
  STAR via SPEAR (West)
  STAR via SPEAR (Alternate Holding at LOGAN and ALKIN)

IAPs (Instrument Approach Procedures)

  LOC/DME/NDB (L) Rwy 27 (Aircraft CAT A/B/C)
  Visual Approach Profile Rwy 27
  ILS (5.5°GP) /DME/NDB (L) Rwy 27 (Aircraft CAT A/B/C)
  Visual Approach Profile Rwy 09
  LOC/DME/NDB (L) Rwy 09
  ATC Surveillance Minimum Altitude Chart
  ILS (5.5°GP) /DME/NDB (L) Rwy 09 (Aircraft CAT A/B/C)

Departure Procedures

  SID DOVER/LYDD
  SID CLACTON
  SID SOUTHAMPTON
  SID BROOKMANS PARK/COMPTON
Satellite photo at:
Airport distance calculator
From:
Weather Reports

METAR

EGLC

EGLC 010920Z 24010KT 200V260 9999 SCT034 18/12 Q1009
EGKB
11.4nm S
EGKB 010920Z 23008KT 170V270 9999 FEW010 SCT020 16/14 Q1009
EGWU
17.8nm W
EGWU 010850Z 25009KT 9999 SCT020 BKN030 17/12 Q1008 BECMG SCT025
EGLL
18.9nm SW
EGLL 010920Z 24011KT 8000 -RADZ BKN014 BKN027 16/14 Q1009 BECMG SCT020
EGSS
23.5nm N
EGSS 010920Z AUTO 22013KT 9999 BKN016 17/13 Q1008
EGKK
23.8nm S
EGKK 010920Z 23008KT 9999 SCT015 BKN027 16/14 Q1010

TAF

EGLC
TAF EGLC 010802Z 0109/0118 24012KT 9999 SCT030 PROB40 TEMPO 0109/0111 8000 -RADZ BKN014 PROB30 TEMPO 0112/0118 25015G25KT 8000 SHRA
EGKB
11.4nm S
TAF EGKB 010802Z 0109/0118 24012KT 9999 SCT030 TEMPO 0109/0111 6000 -RADZ BKN006 PROB30 TEMPO 0112/0118 24015G25KT 8000 SHRA
EGWU
17.8nm W
TAF EGWU 010737Z 0109/0203 25012KT 9999 FEW016 BKN030 TEMPO 0109/0111 SCT020 TEMPO 0112/0120 26016G28KT PROB30 TEMPO 0116/0119 7000 SHRA
EGLL
18.9nm SW
TAF EGLL 010454Z 0106/0212 22010KT 9999 BKN020 PROB40 TEMPO 0106/0112 7000 -SHRA BKN012 TEMPO 0111/0120 24015G28KT PROB40 TEMPO 0112/0120 6000 SHRA TEMPO 0208/0212 25015G28KT
EGSS
23.5nm N
TAF AMD EGSS 010857Z 0108/0212 23012KT 9999 SCT030 TEMPO 0108/0110 BKN014 PROB30 TEMPO 0111/0120 23015G25KT 8000 SHRA
EGKK
23.8nm S
TAF EGKK 010503Z 0106/0212 23010KT 9999 BKN010 TEMPO 0106/0109 8000 -RADZ BKN005 PROB30 TEMPO 0106/0108 4000 RADZ BECMG 0108/0111 SCT025 PROB40 TEMPO 0108/0119 7000 SHRA PROB30 TEMPO 0114/0118 23015G25KT
Safelog

 

Dauntless Aviation

© 2007-2016 Dauntless Aviation, all rights reserved
Information provided via PilotNav comes from a variety of official and unofficial data sources. As errors are possible, do not use PilotNav for primary flight planning purposes. Verify any information that you receive via PilotNav with current and canonical charts and other official documents. The material in this database is subject to database copyrights held by Dauntless Aviation and may not be copied without the express permission of Dauntless Aviation - licenses for use of part of all of this data are available for purchase; enquire via the Dauntless Aviation helpdesk. A number of mechanisms and markers exist in the database to protect against and identify infringement / copyright. Automated queries against this website are stictly prohibited, and all activity is logged and analyzed.